Briefing drone pour La ricamarie

Rechercher une autre localisation

Conditions de vol :


Nous sommes le : Dimanche 16 mai 2021
Il est 22:50 UTC (00:50 LT)

Lever de soleil : 03:44 UTC (05:44 LT)
Coucher de soleil : 19:33 UTC (21:33 LT)

Météo

L'essentiel des conditions de vol

VIGILANCE MÉTÉO FRANCE - Loire (42)
Pas de vigilances particulieres
CARTE TEMSI
CARTES DES FRONTS
METAR de LFMH
LFMH 152230Z AUTO VRB01KT 9999 OVC039 11/10 Q1010

Date d'émission: 15/05/2021
Heure d'émission: 22:30 UTC
Vent: Variable 1 KT (2 km/h)
Visibilité horizontale: > 10 km
Plafond :
- Couvert à 3900ft (1189m)
Température: 11 °C
Point de rosée: 10 °C
Humidité: 94%
Pression (QNH): 1010 hPa
TAF de LFMH
LFMH 151904Z 1519/1612 CNL

Conditions prévues :

Heure d'émission : Bulletin éffectué le 15 à 19:00 UTC
Prévision : Valide du 15 a 19:00 UTC au 16 a 12:00 UTC
Nuages : à 0ft (0 m)
WEBCAM POUR LA RICAMARIE

Réglementation

Voler en sécurité

CARTES AERONAUTIQUE 1/500.000
CARTES VAC (LFMH)
SUP AIP




Chargement des AIP...
NOTAM (LA RICAMARIE + Terrain à proximité / FIR )




Chargement des NOTAMS...
CONTACT PREFECTURE 42


Avertissement : Les données mises à disposition sont indicatives. Oxygène Drone ne pourra être tenu responsable de dégâts causés aux biens et aux personnes.